»·PEaware :: N5MW KCMA-KAVX

N5MW :: KCMA-KAVX

FLIGHT INFORMATION

Flight Status: Arrived
Operator: Privately registered:
United States
More flights under this callsign
Pilot: Max W. (2591)
Aircraft: CESSNA T210 TURBO CENTURION
(T210)
More flights by this aircraft type
Origin: KCMA Camarillo
United States
Destination: KAVX Catalina
United States
More flights between these airports :: More routes between these airports
Route: VTU V208 SXC
File this flight plan on PilotEdge
Remarks: STUDENT PILOT
Altitude:
(Current/Filed)
5,000ft
Speed:
(Current/Filed)
450kts
Departed: 17-Jun-18 01:57 PM
Arrived: 17-Jun-18 02:37 PM
Distance/Time
Traveled:
59nm/0:40
Distance/Time
To Go:
Arrived

Flight Plot

Page will automatically refresh every two minutes.


Map Options




Map Legend


Flown Route
Filed Route
Departure Airport
Arrival Airport
Navaid (VOR, NDB)
Fix

Horizontal Profiles

Position Reports

Time Latitude Longitude Heading Altitude Ground
Speed
17-Jun-18 13:33 34.210623 -119.085475 91 81ft 0kts
17-Jun-18 13:34 34.210623 -119.085475 91 81ft 0kts
17-Jun-18 13:35 34.210623 -119.085475 91 81ft 0kts
17-Jun-18 13:36 34.210623 -119.085475 91 81ft 0kts
17-Jun-18 13:37 34.210623 -119.085475 91 81ft 0kts
17-Jun-18 13:38 34.210623 -119.085475 91 81ft 0kts
17-Jun-18 13:39 34.210623 -119.085475 91 81ft 0kts
17-Jun-18 13:40 34.210623 -119.085475 91 81ft 0kts
17-Jun-18 13:41 34.210623 -119.085475 91 81ft 0kts
17-Jun-18 13:42 34.210623 -119.085475 91 81ft 0kts
17-Jun-18 13:43 34.210623 -119.085475 91 81ft 0kts
17-Jun-18 13:44 34.210623 -119.085474 91 81ft 0kts
17-Jun-18 13:45 34.210623 -119.085474 90 81ft 0kts
17-Jun-18 13:46 34.210623 -119.085474 90 81ft 0kts
17-Jun-18 13:47 34.210623 -119.085474 90 81ft 0kts
17-Jun-18 13:48 34.210623 -119.085474 90 81ft 0kts
17-Jun-18 13:49 34.210623 -119.085474 90 81ft 0kts
17-Jun-18 13:50 34.210623 -119.085474 91 81ft 0kts
17-Jun-18 13:51 34.210623 -119.085474 91 81ft 0kts
17-Jun-18 13:52 34.210623 -119.085474 90 81ft 0kts
17-Jun-18 13:53 34.212329 -119.084623 358 81ft 19kts
17-Jun-18 13:54 34.212850 -119.084617 0 81ft 0kts
17-Jun-18 13:55 34.212850 -119.084617 0 81ft 0kts
17-Jun-18 13:56 34.213695 -119.084832 268 81ft 8kts
17-Jun-18 13:57 34.214924 -119.107255 287 567ft 94kts
17-Jun-18 13:58 34.222241 -119.136571 291 1658ft 91kts
17-Jun-18 13:59 34.230501 -119.167414 287 2561ft 105kts
17-Jun-18 14:00 34.230373 -119.197937 205 3617ft 100kts
17-Jun-18 14:01 34.205319 -119.189790 136 4731ft 108kts
17-Jun-18 14:02 34.183384 -119.154855 130 5012ft 156kts
17-Jun-18 14:03 34.155353 -119.111487 129 5009ft 172kts
17-Jun-18 14:04 34.125187 -119.064488 129 5008ft 180kts
17-Jun-18 14:05 34.081287 -119.045699 177 5008ft 172kts
17-Jun-18 14:06 34.034062 -119.040578 178 5008ft 170kts
17-Jun-18 14:07 33.986903 -119.035631 178 5008ft 170kts
17-Jun-18 14:08 33.939826 -119.030699 178 5008ft 170kts
17-Jun-18 14:09 33.895965 -119.026107 178 5008ft 170kts
17-Jun-18 14:10 33.849034 -119.021198 178 5009ft 170kts
17-Jun-18 14:11 33.801963 -119.016261 177 5009ft 170kts
17-Jun-18 14:12 33.765862 -118.978621 132 5009ft 179kts
17-Jun-18 14:13 33.734030 -118.932719 132 5010ft 179kts
17-Jun-18 14:14 33.702115 -118.886635 132 5013ft 179kts
17-Jun-18 14:15 33.670044 -118.840679 132 5017ft 180kts
17-Jun-18 14:16 33.636671 -118.795423 131 5023ft 182kts
17-Jun-18 14:17 33.604720 -118.747860 132 5027ft 183kts
17-Jun-18 14:18 33.572253 -118.701114 133 5028ft 182kts
17-Jun-18 14:19 33.539795 -118.654580 132 5028ft 182kts
17-Jun-18 14:20 33.507366 -118.607944 132 5028ft 182kts
17-Jun-18 14:21 33.475708 -118.562092 132 5028ft 182kts
17-Jun-18 14:22 33.443060 -118.515597 133 5028ft 182kts
17-Jun-18 14:23 33.410329 -118.469142 133 5028ft 182kts
17-Jun-18 14:24 33.378726 -118.419783 108 4584ft 199kts
17-Jun-18 14:25 33.411156 -118.399594 327 4033ft 178kts
17-Jun-18 14:26 33.459416 -118.407668 0 3857ft 183kts
17-Jun-18 14:27 33.509840 -118.404708 333 3428ft 172kts
17-Jun-18 14:28 33.545950 -118.436741 318 3421ft 158kts
17-Jun-18 14:29 33.573136 -118.413037 114 3416ft 172kts
17-Jun-18 14:30 33.531809 -118.397318 189 3031ft 174kts
17-Jun-18 14:31 33.483109 -118.404082 189 2359ft 177kts
17-Jun-18 14:32 33.437207 -118.410822 190 2303ft 150kts
17-Jun-18 14:33 33.410482 -118.424425 201 1995ft 72kts
17-Jun-18 14:34 33.406858 -118.413397 34 1886ft 79kts
17-Jun-18 14:35 33.436818 -118.405037 62 1975ft 95kts
17-Jun-18 14:36 33.417772 -118.397580 206 2207ft 83kts
17-Jun-18 14:37 33.405295 -118.415127 194 1553ft 15kts
17-Jun-18 14:38 33.403392 -118.415635 329 1553ft 0kts
17-Jun-18 14:39 33.403392 -118.415635 329 1553ft 0kts
17-Jun-18 14:40 33.403392 -118.415635 329 1553ft 0kts
17-Jun-18 14:41 33.403392 -118.415635 329 1553ft 0kts
17-Jun-18 14:42 33.403392 -118.415635 329 1553ft 0kts
17-Jun-18 14:43 33.403392 -118.415635 329 1553ft 0kts
17-Jun-18 14:44 33.403392 -118.415635 329 1553ft 0kts
17-Jun-18 14:45 33.403392 -118.415635 329 1553ft 0kts

Navigation Log

Ident Type
1. KCMA Airport
2. VTU Navaid
3. WEEZL Fix
4. SXC Navaid
5. KAVX Airport